Time;durP1;ratioP1;P1;durP2;ratioP2;P2;SDS_P1;SDS_P2;PMS_P1;PMS_P2;Temp;Humidity;BMP_temperature;BMP_pressure;BME280_temperature;BME280_humidity;BME280_pressure;Samples;Min_cycle;Max_cycle;Signal;HPM_P1;HPM_P2
2021/12/11 00:00:56;;;;;;;66.72;31.23;;;1.50;99.90;;;;;;5098934;28;20027;-78
2021/12/11 00:03:39;;;;;;;59.25;29.35;;;1.40;99.90;;;;;;5099054;28;20272;-78
2021/12/11 00:06:10;;;;;;;65.65;31.23;;;1.40;99.90;;;;;;5095859;28;20499;-79
2021/12/11 00:08:38;;;;;;;70.07;29.83;;;1.40;99.90;;;;;;5093323;28;20024;-78
2021/12/11 00:11:08;;;;;;;73.72;31.10;;;1.40;99.90;;;;;;5093666;28;20042;-78
2021/12/11 00:13:38;;;;;;;74.55;31.83;;;1.50;99.90;;;;;;5092484;28;20028;-78
2021/12/11 00:16:08;;;;;;;87.55;32.78;;;1.50;99.90;;;;;;5092073;28;20036;-78
2021/12/11 00:18:34;;;;;;;107.97;32.47;;;1.50;99.90;;;;;;5094606;28;20032;-79
2021/12/11 00:21:02;;;;;;;;;;;1.40;99.90;;;;;;5101648;28;20028;-79
2021/12/11 00:23:40;;;;;;;93.35;28.75;;;1.50;99.90;;;;;;5096152;28;19904;-79
2021/12/11 00:26:08;;;;;;;104.10;32.17;;;1.50;99.90;;;;;;5094474;28;20491;-78
2021/12/11 00:28:45;;;;;;;139.40;33.75;;;1.40;99.90;;;;;;5090853;28;20111;-78
2021/12/11 00:31:10;;;;;;;;;;;1.50;99.90;;;;;;5091400;28;20043;-78
2021/12/11 00:33:37;;;;;;;146.15;31.88;;;1.50;99.90;;;;;;5094829;28;20077;-79
2021/12/11 00:36:10;;;;;;;125.22;31.65;;;1.30;99.90;;;;;;5093826;28;20614;-77
2021/12/11 00:38:37;;;;;;;103.00;28.77;;;1.30;99.90;;;;;;5093315;28;20489;-78
2021/12/11 00:41:07;;;;;;;113.75;28.80;;;1.40;99.90;;;;;;5096624;28;20066;-82
2021/12/11 00:43:35;;;;;;;103.30;28.45;;;1.50;99.90;;;;;;5108083;28;20032;-79
2021/12/11 00:46:05;;;;;;;161.20;32.85;;;1.40;99.90;;;;;;5107570;28;20038;-77
2021/12/11 00:48:31;;;;;;;98.88;31.70;;;1.30;99.90;;;;;;5091688;28;20052;-77
2021/12/11 00:51:05;;;;;;;135.85;33.10;;;1.30;99.90;;;;;;5092366;28;20040;-77
2021/12/11 00:53:44;;;;;;;139.93;34.58;;;1.20;99.90;;;;;;5091491;28;20031;-78
2021/12/11 00:56:25;;;;;;;113.78;31.17;;;1.20;99.90;;;;;;5094703;28;20431;-78
2021/12/11 00:58:53;;;;;;;81.93;27.60;;;1.30;99.90;;;;;;5093417;28;20057;-78
2021/12/11 01:01:32;;;;;;;77.85;26.55;;;1.30;99.90;;;;;;5092497;28;20540;-78
2021/12/11 01:04:17;;;;;;;90.38;28.45;;;1.30;99.90;;;;;;5093150;28;20122;-78
2021/12/11 01:06:53;;;;;;;93.93;29.23;;;1.30;99.90;;;;;;5099223;28;20539;-77
2021/12/11 01:09:28;;;;;;;87.03;28.60;;;1.30;99.90;;;;;;5092436;28;20048;-78
2021/12/11 01:12:08;;;;;;;88.05;27.85;;;1.30;99.90;;;;;;5089760;28;20290;-77
2021/12/11 01:14:41;;;;;;;68.22;25.02;;;1.30;99.90;;;;;;5091970;28;20028;-77
2021/12/11 01:17:44;;;;;;;88.07;29.08;;;1.40;99.90;;;;;;5092055;28;20430;-77
2021/12/11 01:20:23;;;;;;;73.95;27.70;;;1.40;99.90;;;;;;5093261;28;20024;-77
2021/12/11 01:22:50;;;;;;;85.93;28.35;;;1.40;99.90;;;;;;5092806;28;20039;-78
2021/12/11 01:25:25;;;;;;;69.28;27.05;;;1.40;99.90;;;;;;5093486;28;20069;-78
2021/12/11 01:27:56;;;;;;;99.88;25.33;;;1.40;99.90;;;;;;5093439;28;20027;-77
2021/12/11 01:30:26;;;;;;;85.00;27.60;;;1.40;99.90;;;;;;5100386;28;20036;-81
2021/12/11 01:32:52;;;;;;;68.60;22.77;;;1.40;99.90;;;;;;5105929;28;20038;-81
2021/12/11 01:35:18;;;;;;;;;;;1.40;99.90;;;;;;5106892;28;20052;-79
2021/12/11 01:37:46;;;;;;;75.75;24.10;;;1.40;99.90;;;;;;5107166;28;19971;-81
2021/12/11 01:40:16;;;;;;;68.45;23.38;;;1.40;99.90;;;;;;5105450;28;20028;-78
2021/12/11 01:42:42;;;;;;;56.05;20.52;;;1.40;99.90;;;;;;5107688;28;20032;-81
2021/12/11 01:45:12;;;;;;;60.80;22.75;;;1.50;99.90;;;;;;5110766;28;20107;-79
2021/12/11 01:47:41;;;;;;;59.55;22.38;;;1.40;99.90;;;;;;5108424;28;20024;-80
2021/12/11 01:50:29;;;;;;;58.25;23.13;;;1.40;99.90;;;;;;5108769;28;20173;-79
2021/12/11 01:53:13;;;;;;;70.00;27.67;;;1.50;99.90;;;;;;5098138;28;20077;-77
2021/12/11 01:56:05;;;;;;;61.47;23.33;;;1.50;99.90;;;;;;5097312;28;20028;-77
2021/12/11 01:59:05;;;;;;;66.35;24.48;;;1.50;99.90;;;;;;5095681;28;20115;-78
2021/12/11 02:01:41;;;;;;;55.65;22.30;;;1.50;99.90;;;;;;5092125;28;20036;-78
2021/12/11 02:04:08;;;;;;;51.00;21.58;;;1.50;99.90;;;;;;5098649;28;20034;-77
2021/12/11 02:06:39;;;;;;;49.38;19.17;;;1.50;99.90;;;;;;5100324;28;20024;-78
2021/12/11 02:09:20;;;;;;;40.55;18.58;;;1.50;99.90;;;;;;5097140;28;20048;-77
2021/12/11 02:11:49;;;;;;;42.78;20.38;;;1.50;99.90;;;;;;5095681;28;20032;-76
2021/12/11 02:14:21;;;;;;;42.22;19.98;;;1.50;99.90;;;;;;5098039;28;20103;-76
2021/12/11 02:16:52;;;;;;;37.95;18.60;;;1.50;99.90;;;;;;5097582;28;20035;-77
2021/12/11 02:19:39;;;;;;;40.38;17.40;;;1.60;99.90;;;;;;5095930;28;20040;-78
2021/12/11 02:22:12;;;;;;;37.03;16.20;;;1.70;99.90;;;;;;5096855;28;20019;-78
2021/12/11 02:24:41;;;;;;;43.53;19.90;;;1.60;99.90;;;;;;5097083;28;20044;-78
2021/12/11 02:27:14;;;;;;;49.78;22.25;;;1.70;99.90;;;;;;5094915;28;20028;-79
2021/12/11 02:30:09;;;;;;;41.67;19.92;;;1.60;99.90;;;;;;5096111;28;20032;-79
2021/12/11 02:32:43;;;;;;;40.67;20.20;;;1.60;99.90;;;;;;5109314;28;20028;-81
2021/12/11 02:35:21;;;;;;;39.85;18.58;;;1.60;99.90;;;;;;5102516;28;20396;-78
2021/12/11 02:38:03;;;;;;;40.90;20.00;;;1.50;99.90;;;;;;5092753;28;20032;-78
2021/12/11 02:40:45;;;;;;;45.58;20.33;;;1.50;99.90;;;;;;5092015;28;20027;-78
2021/12/11 02:43:19;;;;;;;40.95;20.45;;;1.60;99.90;;;;;;5095392;28;20028;-80
2021/12/11 02:45:53;;;;;;;45.53;23.02;;;1.60;99.90;;;;;;5098278;28;20101;-79
2021/12/11 02:48:33;;;;;;;56.60;25.35;;;1.60;99.90;;;;;;5099646;28;20024;-78
2021/12/11 02:51:20;;;;;;;56.33;27.10;;;1.60;99.90;;;;;;5099500;28;20053;-79
2021/12/11 02:53:54;;;;;;;60.10;29.05;;;1.60;99.90;;;;;;5098834;28;20020;-79
2021/12/11 02:56:28;;;;;;;41.30;21.92;;;1.60;99.90;;;;;;5099284;28;20032;-79
2021/12/11 02:58:57;;;;;;;35.08;20.25;;;1.70;99.90;;;;;;5099064;28;20100;-79
2021/12/11 03:01:38;;;;;;;40.00;20.58;;;1.70;99.90;;;;;;5097203;28;20028;-79
2021/12/11 03:04:16;;;;;;;45.60;23.15;;;1.70;99.90;;;;;;5097566;28;20032;-78
2021/12/11 03:06:45;;;;;;;41.30;22.17;;;1.70;99.90;;;;;;5098022;28;20031;-80
2021/12/11 03:09:14;;;;;;;40.17;21.95;;;1.70;99.90;;;;;;5099324;28;20040;-78
2021/12/11 03:11:41;;;;;;;39.47;21.40;;;1.70;99.90;;;;;;5097735;28;20404;-79
2021/12/11 03:14:12;;;;;;;35.72;18.83;;;1.70;99.90;;;;;;5099045;28;20028;-78
2021/12/11 03:16:39;;;;;;;36.55;19.15;;;1.80;99.90;;;;;;5097790;28;20032;-79
2021/12/11 03:19:09;;;;;;;32.25;17.30;;;1.80;99.90;;;;;;5098027;28;20070;-79
2021/12/11 03:21:36;;;;;;;36.00;17.52;;;1.70;99.90;;;;;;5096519;28;20028;-78
2021/12/11 03:24:03;;;;;;;31.60;16.58;;;1.70;99.90;;;;;;5098232;28;20024;-78
2021/12/11 03:26:29;;;;;;;31.75;16.58;;;1.70;99.90;;;;;;5093832;28;20028;-78
2021/12/11 03:28:54;;;;;;;;;;;1.80;99.90;;;;;;5094424;28;20077;-78
2021/12/11 03:31:20;;;;;;;28.58;15.40;;;1.70;99.90;;;;;;5094428;28;19919;-78
2021/12/11 03:33:47;;;;;;;;;;;1.70;99.90;;;;;;5094767;28;20036;-78
2021/12/11 03:36:16;;;;;;;26.60;13.93;;;1.80;99.90;;;;;;5093349;28;19947;-77
2021/12/11 03:38:56;;;;;;;29.25;16.50;;;1.80;99.90;;;;;;5092880;28;20048;-78
2021/12/11 03:41:23;;;;;;;36.17;18.38;;;1.80;99.90;;;;;;5094050;28;20414;-78
2021/12/11 03:43:49;;;;;;;37.60;19.30;;;1.80;99.90;;;;;;5092898;28;20034;-77
2021/12/11 03:46:15;;;;;;;35.90;18.50;;;1.80;99.90;;;;;;5094108;28;20021;-77
2021/12/11 03:48:46;;;;;;;42.90;24.65;;;1.70;99.90;;;;;;5093272;28;20117;-78
2021/12/11 03:51:16;;;;;;;56.20;31.88;;;1.70;99.90;;;;;;5092913;28;20032;-78
2021/12/11 03:53:42;;;;;;;43.67;23.33;;;1.70;99.90;;;;;;5094249;28;20028;-77
2021/12/11 03:56:08;;;;;;;;;;;1.60;99.90;;;;;;5095444;28;20024;-78
2021/12/11 03:58:35;;;;;;;35.47;19.30;;;1.60;99.90;;;;;;5095985;28;19930;-78
2021/12/11 04:01:14;;;;;;;41.28;19.58;;;1.60;99.90;;;;;;5100755;28;20032;-77
2021/12/11 04:03:44;;;;;;;37.00;18.40;;;1.60;99.90;;;;;;5096313;28;20028;-77
2021/12/11 04:06:11;;;;;;;44.63;21.33;;;1.60;99.90;;;;;;5091329;28;20035;-77
2021/12/11 04:08:41;;;;;;;48.20;25.95;;;1.60;99.90;;;;;;5093258;28;20129;-78
2021/12/11 04:11:16;;;;;;;34.60;18.27;;;1.60;99.90;;;;;;5091790;28;20178;-78
2021/12/11 04:13:43;;;;;;;42.83;21.85;;;1.60;99.90;;;;;;5093098;28;20027;-77
2021/12/11 04:16:10;;;;;;;39.92;20.35;;;1.60;99.90;;;;;;5092410;28;20035;-78
2021/12/11 04:18:36;;;;;;;34.75;19.27;;;1.60;99.90;;;;;;5095941;28;20025;-77
2021/12/11 04:21:02;;;;;;;;;;;1.60;99.90;;;;;;5097147;28;20038;-79
2021/12/11 04:23:27;;;;;;;33.25;17.05;;;1.70;99.90;;;;;;5099484;28;19971;-78
2021/12/11 04:25:55;;;;;;;;;;;1.70;99.90;;;;;;5097503;28;20070;-78
2021/12/11 04:28:29;;;;;;;35.10;18.65;;;1.70;99.90;;;;;;5097413;28;19912;-78
2021/12/11 04:31:04;;;;;;;38.20;19.90;;;1.80;99.90;;;;;;5095429;28;20034;-79
2021/12/11 04:33:31;;;;;;;34.15;16.80;;;1.70;99.90;;;;;;5098071;28;20044;-79
2021/12/11 04:35:57;;;;;;;31.02;17.30;;;1.70;99.90;;;;;;5096610;28;20032;-78
2021/12/11 04:38:23;;;;;;;;;;;1.80;99.90;;;;;;5096210;28;20128;-78
2021/12/11 04:40:53;;;;;;;37.05;19.70;;;1.70;99.90;;;;;;5096646;28;20378;-77
2021/12/11 04:43:22;;;;;;;32.17;18.20;;;1.80;99.90;;;;;;5096265;28;20024;-77
2021/12/11 04:45:57;;;;;;;38.30;19.83;;;1.80;99.90;;;;;;5096966;28;20142;-79
2021/12/11 04:48:40;;;;;;;31.40;17.67;;;1.80;99.90;;;;;;5099109;28;20096;-78
2021/12/11 04:58:59;;;;;;;32.97;18.60;;;1.70;99.90;;;;;;5093839;28;20086;-78
2021/12/11 05:01:38;;;;;;;36.22;18.15;;;1.80;99.90;;;;;;5093184;28;20028;-79
2021/12/11 05:11:38;;;;;;;41.25;19.60;;;1.80;99.90;;;;;;5097367;28;20032;-79
2021/12/11 05:14:08;;;;;;;38.17;18.50;;;1.80;99.90;;;;;;5095697;28;20515;-78
2021/12/11 05:16:34;;;;;;;29.45;16.52;;;1.70;99.90;;;;;;5096033;28;20423;-79
2021/12/11 05:18:59;;;;;;;;;;;1.80;99.90;;;;;;5095707;28;20032;-77
2021/12/11 05:21:25;;;;;;;25.48;14.48;;;1.90;99.90;;;;;;5097580;28;19904;-79
2021/12/11 05:23:52;;;;;;;47.20;22.45;;;1.90;99.90;;;;;;5095883;28;20036;-78
2021/12/11 05:26:19;;;;;;;31.13;15.80;;;1.90;99.90;;;;;;5095422;28;20034;-80
2021/12/11 05:28:46;;;;;;;31.73;16.60;;;1.80;99.90;;;;;;5098340;28;20020;-79
2021/12/11 05:31:11;;;;;;;34.60;17.75;;;1.80;99.90;;;;;;5099294;28;20538;-79
2021/12/11 05:33:37;;;;;;;;;;;1.80;99.90;;;;;;5096376;28;20096;-78
2021/12/11 05:36:06;;;;;;;37.88;17.42;;;1.80;99.90;;;;;;5097157;28;19935;-78
2021/12/11 05:38:35;;;;;;;38.67;19.05;;;1.80;99.90;;;;;;5096466;28;20024;-79
2021/12/11 05:41:03;;;;;;;30.42;15.27;;;1.80;99.90;;;;;;5095417;28;20028;-77
2021/12/11 05:43:29;;;;;;;28.35;14.00;;;1.80;99.90;;;;;;5092073;28;20020;-78
2021/12/11 05:45:55;;;;;;;26.13;14.13;;;1.90;99.90;;;;;;5093804;28;20035;-78
2021/12/11 05:48:21;;;;;;;;;;;1.90;99.90;;;;;;5096105;28;20028;-80
2021/12/11 05:50:51;;;;;;;21.58;12.07;;;1.80;99.90;;;;;;5097580;28;20727;-79
2021/12/11 05:53:17;;;;;;;20.92;11.88;;;1.80;99.90;;;;;;5096987;28;20074;-78
2021/12/11 05:55:46;;;;;;;22.08;13.07;;;1.80;99.90;;;;;;5095869;28;20438;-78
2021/12/11 05:58:14;;;;;;;26.83;13.65;;;1.80;99.90;;;;;;5093845;28;20055;-79
2021/12/11 06:00:48;;;;;;;23.35;13.27;;;1.80;99.90;;;;;;5091167;28;20027;-77
2021/12/11 06:03:15;;;;;;;25.80;13.50;;;1.80;99.90;;;;;;5092319;28;20500;-79
2021/12/11 06:05:41;;;;;;;25.70;13.40;;;1.80;99.90;;;;;;5094376;28;20000;-81
2021/12/11 06:08:08;;;;;;;;;;;1.90;99.90;;;;;;5105858;28;20035;-80
2021/12/11 06:10:34;;;;;;;20.75;11.82;;;1.90;99.90;;;;;;5105128;28;19920;-81
2021/12/11 06:13:01;;;;;;;21.90;11.75;;;1.90;99.90;;;;;;5109298;28;20035;-81
2021/12/11 06:15:28;;;;;;;19.80;11.82;;;1.90;99.90;;;;;;5102239;28;20028;-79
2021/12/11 06:17:54;;;;;;;20.00;11.50;;;1.80;99.90;;;;;;5098649;28;20068;-79
2021/12/11 06:20:23;;;;;;;;;;;1.80;99.90;;;;;;5097610;28;20550;-78
2021/12/11 06:22:48;;;;;;;17.63;11.82;;;1.90;99.90;;;;;;5096901;28;19911;-79
2021/12/11 06:25:16;;;;;;;;;;;1.90;99.90;;;;;;5094877;28;20047;-79
2021/12/11 06:27:42;;;;;;;;;;;1.90;99.90;;;;;;5092921;28;20519;-79
2021/12/11 06:30:08;;;;;;;21.65;13.10;;;1.90;99.90;;;;;;5095641;28;20403;-79
2021/12/11 06:32:34;;;;;;;22.38;13.10;;;1.90;99.90;;;;;;5098182;28;20024;-80
2021/12/11 06:35:03;;;;;;;;;;;1.90;99.90;;;;;;5100444;28;20123;-78
2021/12/11 06:37:29;;;;;;;27.58;15.18;;;2.00;99.90;;;;;;5101520;28;20322;-80
2021/12/11 06:39:54;;;;;;;;;;;1.90;99.90;;;;;;5104067;28;20111;-80
2021/12/11 06:42:20;;;;;;;28.92;16.10;;;2.00;99.90;;;;;;5102566;28;19913;-77
2021/12/11 06:44:47;;;;;;;;;;;2.00;99.90;;;;;;5097578;28;20039;-78
2021/12/11 06:47:14;;;;;;;25.10;13.63;;;2.10;99.90;;;;;;5097795;28;19904;-79
2021/12/11 06:49:41;;;;;;;29.55;16.83;;;2.00;99.90;;;;;;5101802;28;20094;-81
2021/12/11 06:52:12;;;;;;;26.38;15.85;;;2.00;99.90;;;;;;5102426;28;20511;-78
2021/12/11 06:54:38;;;;;;;24.50;14.95;;;2.00;99.90;;;;;;5101393;28;20027;-79
2021/12/11 06:57:05;;;;;;;27.33;15.20;;;2.10;99.90;;;;;;5100494;28;20519;-79
2021/12/11 06:59:31;;;;;;;23.63;13.68;;;2.00;99.90;;;;;;5106863;28;20028;-81
2021/12/11 07:01:58;;;;;;;22.85;14.38;;;2.10;99.90;;;;;;5100874;28;20078;-78
2021/12/11 07:04:23;;;;;;;;;;;2.10;99.90;;;;;;5097547;28;20075;-78
2021/12/11 07:06:53;;;;;;;29.77;15.55;;;2.10;99.90;;;;;;5097107;28;19904;-78
2021/12/11 07:09:21;;;;;;;29.40;17.13;;;2.10;99.90;;;;;;5109081;28;20056;-82
2021/12/11 07:11:48;;;;;;;23.27;14.02;;;2.20;99.90;;;;;;5114407;28;20032;-81
2021/12/11 07:14:16;;;;;;;24.45;14.82;;;2.20;99.90;;;;;;5113781;28;20100;-82
2021/12/11 07:16:42;;;;;;;27.27;15.98;;;2.20;99.90;;;;;;5114454;28;20032;-82
2021/12/11 07:19:09;;;;;;;27.27;15.60;;;2.20;99.90;;;;;;5115381;28;20030;-82
2021/12/11 07:21:34;;;;;;;;;;;2.20;99.90;;;;;;5106020;28;20032;-79
2021/12/11 07:24:00;;;;;;;29.52;17.15;;;2.20;99.90;;;;;;5097708;28;19911;-79
2021/12/11 07:26:31;;;;;;;;;;;2.20;99.90;;;;;;5099652;28;20571;-78
2021/12/11 07:29:02;;;;;;;28.10;16.85;;;2.30;99.90;;;;;;5093121;28;19931;-78
2021/12/11 07:31:28;;;;;;;30.48;16.00;;;2.30;99.90;;;;;;5092351;28;20046;-79
2021/12/11 07:33:55;;;;;;;55.15;27.40;;;2.30;99.90;;;;;;5090075;28;20048;-77
2021/12/11 07:36:22;;;;;;;48.95;26.65;;;2.30;99.90;;;;;;5090634;28;20385;-78
2021/12/11 07:38:49;;;;;;;31.52;20.83;;;2.40;99.90;;;;;;5091026;28;20028;-77
2021/12/11 07:41:16;;;;;;;31.75;17.98;;;2.30;99.90;;;;;;5090062;28;20064;-77
2021/12/11 07:43:43;;;;;;;31.90;17.20;;;2.30;99.90;;;;;;5090300;28;20026;-77
2021/12/11 07:46:13;;;;;;;32.80;20.35;;;2.30;99.90;;;;;;5091634;28;20078;-78
2021/12/11 07:48:41;;;;;;;27.83;14.55;;;2.30;99.90;;;;;;5091442;28;20048;-78
2021/12/11 07:51:07;;;;;;;33.53;15.95;;;2.30;99.90;;;;;;5092081;28;20032;-78
2021/12/11 07:53:33;;;;;;;;;;;2.30;99.90;;;;;;5090807;28;20073;-78
2021/12/11 07:55:59;;;;;;;30.40;13.88;;;2.40;99.90;;;;;;5090484;28;19968;-78
2021/12/11 07:58:26;;;;;;;25.73;14.93;;;2.40;99.90;;;;;;5094708;28;20107;-79
2021/12/11 08:00:55;;;;;;;24.58;13.35;;;2.50;99.90;;;;;;5093203;28;20016;-79
2021/12/11 08:03:21;;;;;;;25.88;16.17;;;2.50;99.90;;;;;;5095796;28;20016;-78
2021/12/11 08:05:47;;;;;;;;;;;2.50;99.90;;;;;;5094761;28;20473;-79
2021/12/11 08:08:15;;;;;;;24.85;15.82;;;2.60;99.90;;;;;;5097687;28;19975;-80
2021/12/11 08:10:44;;;;;;;25.63;14.98;;;2.60;99.90;;;;;;5095770;28;20522;-79
2021/12/11 08:13:11;;;;;;;24.33;14.85;;;2.60;99.90;;;;;;5093108;28;20557;-79
2021/12/11 08:15:39;;;;;;;23.27;13.50;;;2.70;99.90;;;;;;5094885;28;20038;-79
2021/12/11 08:18:07;;;;;;;46.55;25.15;;;2.80;99.90;;;;;;5091625;28;20028;-79
2021/12/11 08:20:39;;;;;;;52.72;28.77;;;2.80;99.90;;;;;;5089037;28;20039;-79
2021/12/11 08:23:06;;;;;;;37.60;21.17;;;2.90;99.90;;;;;;5092315;28;20027;-79
2021/12/11 08:25:34;;;;;;;40.15;21.60;;;2.90;99.90;;;;;;5093500;28;20032;-79
2021/12/11 08:28:00;;;;;;;40.25;22.38;;;2.90;99.90;;;;;;5092683;28;20031;-78
2021/12/11 08:30:31;;;;;;;34.78;20.95;;;3.00;99.90;;;;;;5093383;28;20480;-79
2021/12/11 08:32:57;;;;;;;32.67;17.38;;;3.10;99.90;;;;;;5092366;28;20066;-78
2021/12/11 08:35:23;;;;;;;;;;;3.20;99.90;;;;;;5095580;28;20040;-78
2021/12/11 08:37:50;;;;;;;39.42;22.05;;;3.30;99.90;;;;;;5089068;28;19908;-78
2021/12/11 08:40:24;;;;;;;28.95;17.48;;;3.30;99.90;;;;;;5093567;28;20525;-79
2021/12/11 08:42:50;;;;;;;28.90;16.23;;;3.30;99.90;;;;;;5093474;28;20028;-78
2021/12/11 08:45:24;;;;;;;28.98;15.77;;;3.40;99.90;;;;;;5091052;28;20475;-78
2021/12/11 08:47:56;;;;;;;28.20;15.90;;;3.30;99.90;;;;;;5093108;28;20059;-79
2021/12/11 08:50:25;;;;;;;25.10;14.75;;;3.30;99.90;;;;;;5090657;28;20028;-78
2021/12/11 08:52:53;;;;;;;26.48;14.57;;;3.30;99.90;;;;;;5092453;28;20650;-79
2021/12/11 08:55:32;;;;;;;24.02;13.27;;;3.30;99.90;;;;;;5093246;28;20039;-78
2021/12/11 08:57:59;;;;;;;26.52;13.93;;;3.40;99.90;;;;;;5093628;28;20031;-79
2021/12/11 09:00:49;;;;;;;16.35;9.05;;;3.40;99.90;;;;;;5093578;28;20024;-79
2021/12/11 09:03:38;;;;;;;8.93;5.07;;;3.30;99.90;;;;;;5093313;28;20032;-80
2021/12/11 09:06:28;;;;;;;8.30;5.07;;;3.30;99.90;;;;;;5092839;28;20047;-78
2021/12/11 09:09:16;;;;;;;8.15;4.80;;;3.40;99.90;;;;;;5093048;28;20052;-79
2021/12/11 09:11:54;;;;;;;10.77;5.72;;;3.30;99.90;;;;;;5093787;28;20036;-78
2021/12/11 09:14:36;;;;;;;7.95;5.25;;;3.30;99.90;;;;;;5092351;28;20101;-79
2021/12/11 09:17:10;;;;;;;9.10;5.47;;;3.40;99.90;;;;;;5092279;28;20127;-79
2021/12/11 09:19:46;;;;;;;7.50;4.57;;;3.40;99.90;;;;;;5092902;28;20069;-79
2021/12/11 09:22:29;;;;;;;16.80;8.60;;;3.50;99.90;;;;;;5091482;28;20081;-78
2021/12/11 09:25:13;;;;;;;17.98;10.45;;;3.30;99.90;;;;;;5092038;28;20085;-78
2021/12/11 09:27:48;;;;;;;11.68;7.50;;;3.30;99.90;;;;;;5092511;28;20056;-79
2021/12/11 09:30:23;;;;;;;15.60;9.40;;;3.30;99.90;;;;;;5092555;28;20104;-79
2021/12/11 09:32:54;;;;;;;18.95;10.65;;;3.30;99.90;;;;;;5094381;28;20032;-80
2021/12/11 09:35:40;;;;;;;18.58;11.05;;;3.30;99.90;;;;;;5095319;28;20021;-79
2021/12/11 09:38:30;;;;;;;21.23;11.85;;;3.30;99.90;;;;;;5093578;28;20036;-80
2021/12/11 09:40:56;;;;;;;22.08;12.18;;;3.30;99.90;;;;;;5093408;28;20028;-78
2021/12/11 09:43:43;;;;;;;;;;;3.30;99.90;;;;;;5094331;28;20027;-79
2021/12/11 09:46:13;;;;;;;21.52;13.75;;;3.30;99.90;;;;;;5093170;28;19908;-79
2021/12/11 09:48:40;;;;;;;22.60;12.55;;;3.30;99.90;;;;;;5093110;28;20520;-79
2021/12/11 09:51:11;;;;;;;24.95;13.88;;;3.40;99.90;;;;;;5095598;28;20660;-80
2021/12/11 09:53:43;;;;;;;23.20;13.88;;;3.50;99.90;;;;;;5091718;28;20020;-79
2021/12/11 09:56:15;;;;;;;21.42;12.10;;;3.50;99.90;;;;;;5093722;28;20056;-79
2021/12/11 09:58:42;;;;;;;20.10;11.02;;;3.40;99.90;;;;;;5093875;28;20059;-79
2021/12/11 10:01:31;;;;;;;19.77;11.63;;;3.40;99.90;;;;;;5099360;28;20526;-81
2021/12/11 10:04:28;;;;;;;23.88;12.30;;;3.50;99.90;;;;;;5100275;28;20031;-80
2021/12/11 10:09:28;;;;;;;20.77;12.40;;;3.40;99.90;;;;;;5096282;28;20155;-80
2021/12/11 10:11:58;;;;;;;24.85;14.77;;;3.40;99.90;;;;;;5095959;28;20073;-80
2021/12/11 10:14:30;;;;;;;23.23;13.98;;;3.40;99.90;;;;;;5095684;28;20113;-78
2021/12/11 10:16:59;;;;;;;25.35;14.35;;;3.40;99.90;;;;;;5093580;28;20028;-79
2021/12/11 10:19:29;;;;;;;28.27;16.80;;;3.40;99.90;;;;;;5094557;28;20498;-78
2021/12/11 10:21:59;;;;;;;17.20;10.57;;;3.40;99.90;;;;;;5096002;28;20028;-78
2021/12/11 10:24:29;;;;;;;15.77;10.00;;;3.60;99.90;;;;;;5095697;28;20024;-79
2021/12/11 10:26:57;;;;;;;18.02;11.38;;;3.40;99.90;;;;;;5094502;28;20028;-79
2021/12/11 10:29:23;;;;;;;44.75;26.52;;;3.40;99.90;;;;;;5094776;28;20020;-78
2021/12/11 10:31:53;;;;;;;;;;;3.60;99.90;;;;;;5095227;28;20042;-78
2021/12/11 10:34:23;;;;;;;52.40;33.88;;;3.60;99.90;;;;;;5093055;28;20011;-78
2021/12/11 10:37:01;;;;;;;44.13;28.98;;;3.60;99.90;;;;;;5092824;28;20064;-79
2021/12/11 10:39:27;;;;;;;29.23;17.30;;;3.50;99.90;;;;;;5092904;28;20115;-78
2021/12/11 10:41:53;;;;;;;;;;;3.60;99.90;;;;;;5092222;28;20073;-78
2021/12/11 10:44:31;;;;;;;23.52;16.27;;;3.60;99.90;;;;;;5092931;28;19907;-78
2021/12/11 10:47:11;;;;;;;23.48;14.23;;;3.50;99.90;;;;;;5094312;28;20024;-79
2021/12/11 10:49:38;;;;;;;26.33;15.65;;;3.50;99.90;;;;;;5093297;28;20039;-79
2021/12/11 10:52:10;;;;;;;26.98;17.38;;;3.60;99.90;;;;;;5093715;28;20113;-79
2021/12/11 10:54:36;;;;;;;24.63;15.32;;;3.60;99.90;;;;;;5097841;28;20564;-80
2021/12/11 10:57:02;;;;;;;;;;;3.70;99.90;;;;;;5094043;28;20067;-79
2021/12/11 10:59:33;;;;;;;24.77;14.77;;;3.60;99.90;;;;;;5092850;28;19943;-80
2021/12/11 11:02:10;;;;;;;59.95;29.55;;;3.70;99.90;;;;;;5097896;28;20053;-80
2021/12/11 11:04:52;;;;;;;211.98;87.57;;;3.70;99.90;;;;;;5095943;28;20028;-80
2021/12/11 11:07:19;;;;;;;60.08;27.20;;;3.80;99.90;;;;;;5099827;28;20056;-79
2021/12/11 11:09:47;;;;;;;182.75;72.13;;;3.80;99.90;;;;;;5098231;28;20075;-80
2021/12/11 11:12:17;;;;;;;112.22;47.28;;;3.90;99.90;;;;;;5103461;28;20070;-81
2021/12/11 11:14:42;;;;;;;216.20;101.07;;;3.90;99.90;;;;;;5100104;28;20046;-80
2021/12/11 11:17:10;;;;;;;;;;;3.90;99.90;;;;;;5105158;28;20032;-80
2021/12/11 11:19:40;;;;;;;40.95;23.27;;;4.00;99.90;;;;;;5106034;28;20023;-79
2021/12/11 11:22:14;;;;;;;24.85;14.63;;;4.00;99.90;;;;;;5100658;28;20021;-80
2021/12/11 11:24:45;;;;;;;17.88;12.23;;;4.00;99.90;;;;;;5094841;28;20059;-79
2021/12/11 11:27:10;;;;;;;19.42;12.63;;;4.10;99.90;;;;;;5093567;28;20031;-79
2021/12/11 11:29:38;;;;;;;;;;;4.20;99.90;;;;;;5095096;28;20028;-78
2021/12/11 11:32:09;;;;;;;16.17;10.25;;;4.20;99.90;;;;;;5092855;28;19923;-79
2021/12/11 11:34:40;;;;;;;26.67;17.70;;;4.30;99.90;;;;;;5093731;28;20035;-78
2021/12/11 11:37:08;;;;;;;23.33;14.50;;;4.30;99.90;;;;;;5094774;28;20024;-78
2021/12/11 11:39:34;;;;;;;31.52;19.20;;;4.40;99.90;;;;;;5092018;28;20024;-78
2021/12/11 11:42:04;;;;;;;31.33;16.38;;;4.40;99.90;;;;;;5093057;28;20028;-80
2021/12/11 11:44:30;;;;;;;35.83;17.58;;;4.50;99.90;;;;;;5094931;28;20099;-79
2021/12/11 11:47:00;;;;;;;;;;;4.50;99.90;;;;;;5094006;28;20499;-79
2021/12/11 11:49:28;;;;;;;39.03;20.00;;;4.50;99.90;;;;;;5092800;28;19914;-79
2021/12/11 11:52:16;;;;;;;42.97;24.48;;;4.50;99.90;;;;;;5092992;28;20666;-79
2021/12/11 11:54:46;;;;;;;35.47;22.50;;;4.60;99.90;;;;;;5093008;28;20035;-79
2021/12/11 11:57:34;;;;;;;30.05;20.52;;;4.70;99.90;;;;;;5093022;28;20028;-79
2021/12/11 12:00:07;;;;;;;29.02;17.50;;;4.70;99.90;;;;;;5094068;28;20028;-79
2021/12/11 12:02:32;;;;;;;32.30;21.77;;;4.70;99.90;;;;;;5094362;28;20024;-78
2021/12/11 12:04:59;;;;;;;;;;;4.80;99.90;;;;;;5095266;28;20077;-80
2021/12/11 12:07:28;;;;;;;33.72;20.38;;;4.80;99.90;;;;;;5095934;28;19911;-80
2021/12/11 12:09:59;;;;;;;34.30;19.83;;;4.80;99.90;;;;;;5093407;28;20074;-79
2021/12/11 12:12:26;;;;;;;47.85;27.90;;;4.80;99.90;;;;;;5093915;28;20040;-79
2021/12/11 12:14:55;;;;;;;43.03;24.83;;;4.90;99.90;;;;;;5095937;28;20175;-78
2021/12/11 12:17:24;;;;;;;49.70;20.98;;;4.80;99.90;;;;;;5093987;28;20054;-78
2021/12/11 12:19:51;;;;;;;38.42;17.02;;;4.80;99.90;;;;;;5095547;28;20024;-80
2021/12/11 12:22:19;;;;;;;50.20;25.38;;;4.80;99.90;;;;;;5095182;28;20111;-78
2021/12/11 12:24:46;;;;;;;32.40;18.73;;;4.80;99.90;;;;;;5093944;28;20030;-78
2021/12/11 12:27:15;;;;;;;19.10;12.40;;;4.70;99.90;;;;;;5095058;28;20553;-79
2021/12/11 12:29:44;;;;;;;20.25;12.63;;;4.70;99.90;;;;;;5095649;28;20035;-79
2021/12/11 12:32:23;;;;;;;18.65;12.10;;;4.70;99.90;;;;;;5096111;28;20042;-79
2021/12/11 12:34:52;;;;;;;27.65;16.33;;;4.60;99.90;;;;;;5095358;28;20553;-78
2021/12/11 12:37:17;;;;;;;28.58;16.98;;;4.60;99.90;;;;;;5102914;28;20028;-79
2021/12/11 12:39:44;;;;;;;;;;;4.60;99.90;;;;;;5105227;28;20114;-79
2021/12/11 12:42:33;;;;;;;41.40;24.75;;;4.50;99.90;;;;;;5096248;28;19903;-80
2021/12/11 12:45:08;;;;;;;33.13;18.88;;;4.50;99.90;;;;;;5094028;28;20032;-78
2021/12/11 12:47:39;;;;;;;31.10;16.10;;;4.40;99.90;;;;;;5091317;28;20024;-78
2021/12/11 12:50:19;;;;;;;24.45;13.52;;;4.40;99.90;;;;;;5092713;28;20028;-79
2021/12/11 12:52:45;;;;;;;27.75;15.82;;;4.40;99.90;;;;;;5091802;28;20044;-80
2021/12/11 12:55:22;;;;;;;78.88;40.50;;;4.30;99.90;;;;;;5091138;28;20024;-80
2021/12/11 12:57:52;;;;;;;211.40;97.22;;;4.30;99.90;;;;;;5092816;28;20032;-80
2021/12/11 13:00:31;;;;;;;219.63;100.50;;;4.30;99.90;;;;;;5091630;28;20030;-79
2021/12/11 13:03:06;;;;;;;173.95;78.38;;;4.30;99.90;;;;;;5093681;28;20064;-79
2021/12/11 13:05:35;;;;;;;155.48;71.78;;;4.30;99.90;;;;;;5091298;28;20027;-79
2021/12/11 13:08:06;;;;;;;395.33;184.77;;;4.30;99.90;;;;;;5091362;28;20024;-80
2021/12/11 13:10:42;;;;;;;316.48;140.52;;;4.30;99.90;;;;;;5090561;28;20058;-79
2021/12/11 13:13:10;;;;;;;179.88;89.68;;;4.30;99.90;;;;;;5092755;28;20524;-78
2021/12/11 13:16:01;;;;;;;134.02;71.93;;;4.30;99.90;;;;;;5093787;28;20091;-79
2021/12/11 13:18:32;;;;;;;40.70;23.30;;;4.30;99.90;;;;;;5091553;28;20500;-78
2021/12/11 13:21:06;;;;;;;42.45;25.73;;;4.30;99.90;;;;;;5092821;28;20099;-79
2021/12/11 13:23:35;;;;;;;52.90;31.42;;;4.30;99.90;;;;;;5091360;28;20024;-79
2021/12/11 13:26:04;;;;;;;37.83;22.00;;;4.30;99.90;;;;;;5090832;28;20024;-79